METAR AND TAF INFORMATION
METAR FOR KJFK
ADDS - METARS form results

(2307 UTC 22 May 2018)
Data provider http://aviationweather.gov/adds/metars/
 
METAR text: KJFK 222251Z 08005KT 6SM BR FEW008 BKN018 OVC023 14/14 A3004 RMK AO2 RAE2152B24E36 SLP172 P0000 T01440139
Conditions at: KJFK (NYC/JFK ARPT , NY, US) observed 2251 UTC 22 May 2018
Temperature: 14.4°C (58°F)
Dewpoint: 13.9°C (57°F) [RH = 97%]
Pressure (altimeter): 30.04 inches Hg (1017.4 mb)
[Sea-level pressure: 1017.2 mb]
Winds: from the E (80 degrees) at 6 MPH (5 knots; 2.6 m/s)
Visibility: 6 miles (10 km)
Ceiling: 1800 feet AGL
Clouds: few clouds at 800 feet AGL
broken clouds at 1800 feet AGL
overcast cloud deck at 2300 feet AGL
Weather: BR  (mist)

Forecast for: KJFK (NYC/JFK ARPT , NY, US)
Text: KJFK 222159Z 2222/2324 11005KT 6SM -SHRA BR OVC020
Forecast period: 2200 UTC 22 May 2018 to 0000 UTC 23 May 2018
Forecast type: FROM: standard forecast or significant change
Winds: from the ESE (110 degrees) at 6 MPH (5 knots; 2.6 m/s)
Visibility: 6 miles (10 km)
Ceiling: 2000 feet AGL
Clouds: overcast cloud deck at 2000 feet AGL
Weather: -SHRA BR  (light rain showers, mist)
Forecast for: KJFK (NYC/JFK ARPT , NY, US)
Text: KJFK 222159Z 2222/2324 11005KT 6SM -SHRA BR OVC020
Forecast period: 2200 UTC 22 May 2018 to 0000 UTC 23 May 2018
Forecast type: FROM: standard forecast or significant change
Winds: from the ESE (110 degrees) at 6 MPH (5 knots; 2.6 m/s)
Visibility: 6 miles (10 km)
Ceiling: 2000 feet AGL
Clouds: overcast cloud deck at 2000 feet AGL
Weather: -SHRA BR  (light rain showers, mist)
Forecast for: KJFK (NYC/JFK ARPT , NY, US)
Text: KJFK 222159Z 2222/2324 11005KT 6SM -SHRA BR OVC020
Forecast period: 0000 to 0500 UTC 23 May 2018
Forecast type: FROM: standard forecast or significant change
Winds: from the ESE (110 degrees) at 5 MPH (4 knots; 2.1 m/s)
Visibility: 2.00 miles (3.22 km)
Ceiling: 700 feet AGL
Clouds: overcast cloud deck at 700 feet AGL
Weather: -SHRA BR  (light rain showers, mist)
Forecast for: KJFK (NYC/JFK ARPT , NY, US)
Text: KJFK 222159Z 2222/2324 11005KT 6SM -SHRA BR OVC020
Forecast period: 0000 to 0500 UTC 23 May 2018
Forecast type: FROM: standard forecast or significant change
Winds: from the ESE (110 degrees) at 5 MPH (4 knots; 2.1 m/s)
Visibility: 2.00 miles (3.22 km)
Ceiling: 700 feet AGL
Clouds: overcast cloud deck at 700 feet AGL
Weather: -SHRA BR  (light rain showers, mist)
Forecast for: KJFK (NYC/JFK ARPT , NY, US)
Text: KJFK 222159Z 2222/2324 11005KT 6SM -SHRA BR OVC020
Forecast period: 0500 to 0800 UTC 23 May 2018
Forecast type: FROM: standard forecast or significant change
Winds: variable direction winds at 5 MPH (4 knots; 2.1 m/s)
Visibility: 1.00 miles (1.61 km)
Ceiling: 500 feet AGL
Clouds: overcast cloud deck at 500 feet AGL
Weather: -SHRA BR  (light rain showers, mist)
Forecast for: KJFK (NYC/JFK ARPT , NY, US)
Text: KJFK 222159Z 2222/2324 11005KT 6SM -SHRA BR OVC020
Forecast period: 0500 to 0800 UTC 23 May 2018
Forecast type: FROM: standard forecast or significant change
Winds: variable direction winds at 5 MPH (4 knots; 2.1 m/s)
Visibility: 1.00 miles (1.61 km)
Ceiling: 500 feet AGL
Clouds: overcast cloud deck at 500 feet AGL
Weather: -SHRA BR  (light rain showers, mist)
Forecast for: KJFK (NYC/JFK ARPT , NY, US)
Text: KJFK 222159Z 2222/2324 11005KT 6SM -SHRA BR OVC020
Forecast period: 0800 to 1300 UTC 23 May 2018
Forecast type: FROM: standard forecast or significant change
Winds: from the W (260 degrees) at 6 MPH (5 knots; 2.6 m/s)
Visibility: 1.50 miles (2.41 km)
Ceiling: 500 feet AGL
Clouds: overcast cloud deck at 500 feet AGL
Weather: BR VCSH  (mist, showers in vicinity)
Forecast for: KJFK (NYC/JFK ARPT , NY, US)
Text: KJFK 222159Z 2222/2324 11005KT 6SM -SHRA BR OVC020
Forecast period: 0800 to 1300 UTC 23 May 2018
Forecast type: FROM: standard forecast or significant change
Winds: from the W (260 degrees) at 6 MPH (5 knots; 2.6 m/s)
Visibility: 1.50 miles (2.41 km)
Ceiling: 500 feet AGL
Clouds: overcast cloud deck at 500 feet AGL
Weather: BR VCSH  (mist, showers in vicinity)
Forecast for: KJFK (NYC/JFK ARPT , NY, US)
Text: KJFK 222159Z 2222/2324 11005KT 6SM -SHRA BR OVC020
Forecast period: 1300 to 1800 UTC 23 May 2018
Forecast type: FROM: standard forecast or significant change
Winds: from the NW (320 degrees) at 9 MPH (8 knots; 4.2 m/s)
Visibility: 6 or more miles (10+ km)
Clouds: scattered clouds at 2000 feet AGL
scattered clouds at 9000 feet AGL
Weather: no significant weather forecast for this period
Forecast for: KJFK (NYC/JFK ARPT , NY, US)
Text: KJFK 222159Z 2222/2324 11005KT 6SM -SHRA BR OVC020
Forecast period: 1300 to 1800 UTC 23 May 2018
Forecast type: FROM: standard forecast or significant change
Winds: from the NW (320 degrees) at 9 MPH (8 knots; 4.2 m/s)
Visibility: 6 or more miles (10+ km)
Clouds: scattered clouds at 2000 feet AGL
scattered clouds at 9000 feet AGL
Weather: no significant weather forecast for this period
Forecast for: KJFK (NYC/JFK ARPT , NY, US)
Text: KJFK 222159Z 2222/2324 11005KT 6SM -SHRA BR OVC020
Forecast period: 1800 UTC 23 May 2018 to 0000 UTC 24 May 2018
Forecast type: FROM: standard forecast or significant change
Winds: from the NW (310 degrees) at 14 MPH (12 knots; 6.2 m/s)
Visibility: 6 or more miles (10+ km)
Clouds: few clouds at 10000 feet AGL
Weather: no significant weather forecast for this period
Forecast for: KJFK (NYC/JFK ARPT , NY, US)
Text: KJFK 222159Z 2222/2324 11005KT 6SM -SHRA BR OVC020
Forecast period: 1800 UTC 23 May 2018 to 0000 UTC 24 May 2018
Forecast type: FROM: standard forecast or significant change
Winds: from the NW (310 degrees) at 14 MPH (12 knots; 6.2 m/s)
Visibility: 6 or more miles (10+ km)
Clouds: few clouds at 10000 feet AGL
Weather: no significant weather forecast for this period

 AIRPORT MAP

 RUNWAY INFORMATION
Runway 04L Runway length 11351 ft Runway width 150 ft
Runway elevation 12 ft Runway displaced threshold 0 ft Runway heading 31
Runway 22R Runway length 11351 ft Runway width 150 ft
Runway elevation 13 ft Runway displaced threshold 2696 ft Runway heading 211
Runway 04R Runway length 8400 ft Runway width 200 ft
Runway elevation 13 ft Runway displaced threshold 0 ft Runway heading 31
Runway 22L Runway length 8400 ft Runway width 200 ft
Runway elevation 13 ft Runway displaced threshold 0 ft Runway heading 211
Runway 13L Runway length 10000 ft Runway width 150 ft
Runway elevation 13 ft Runway displaced threshold 905 ft Runway heading 121
Runway 31R Runway length 10000 ft Runway width 150 ft
Runway elevation 13 ft Runway displaced threshold 1030 ft Runway heading 301
Runway 13R Runway length 14572 ft Runway width 150 ft
Runway elevation 13 ft Runway displaced threshold 2606 ft Runway heading 121
Runway 31L Runway length 14572 ft Runway width 150 ft
Runway elevation 13 ft Runway displaced threshold 3324 ft Runway heading 301

 AIRPORT FREQUENCIES
Type APP Name NEW YORK A Frequency 125.7 MHZ
Type APP Name NEW YORK A Frequency 127.4 MHZ
Type APP Name NEW YORK A Frequency 132.4 MHZ
Type ATIS Name ATIS Frequency 115.1 MHZ
Type CLD Name CLNC DEL Frequency 135.05 MHZ
Type DEP Name NEW YORK D Frequency 135.9 MHZ
Type GND Name GND Frequency 121.9 MHZ
Type RDO Name NEW YORK R Frequency 115.9 MHZ
Type TWR Name KENNEDY TW Frequency 119.1 MHZ
Type UNIC Name UNICOM Frequency 122.95 MHZ

 AIRPORT NEAR NAVIGATION AIDS
Type VOR-DME Name Canarsie Frequency 112300 KHZ
Type VOR-DME Name Kennedy Frequency 115900 KHZ



Powered by Virtual Airlines Manager [v2.6.2]